Time;durP1;ratioP1;P1;durP2;ratioP2;P2;SDS_P1;SDS_P2;PMS_P1;PMS_P2;Temp;Humidity;BMP_temperature;BMP_pressure;BME280_temperature;BME280_humidity;BME280_pressure;Samples;Min_cycle;Max_cycle;Signal;HPM_P1;HPM_P2
2021/10/07 00:00:20;;;;;;;;;;;;;;;;;;2123447;28;19927;-45
2021/10/07 00:01:21;;;;;;;;;;;;;;;;;;2123461;28;19931;-45
2021/10/07 00:02:25;;;;;;;;;;;;;;;;;;2123566;28;19931;-45
2021/10/07 00:03:26;;;;;;;;;;;;;;;;;;2123533;28;20299;-45
2021/10/07 00:04:28;;;;;;;;;;;;;;;;;;2123434;28;19930;-45
2021/10/07 00:05:29;;;;;;;;;;;;;;;;;;2123370;28;20051;-45
2021/10/07 00:06:30;;;;;;;;;;;;;;;;;;2123333;28;20388;-45
2021/10/07 00:07:30;;;;;;;;;;;;;;;;;;2123608;28;19923;-45
2021/10/07 00:08:31;;;;;;;;;;;;;;;;;;2123240;28;19969;-45
2021/10/07 00:09:32;;;;;;;;;;;;;;;;;;2123541;28;20368;-45
2021/10/07 00:10:33;;;;;;;;;;;;;;;;;;2123199;28;19927;-45
2021/10/07 00:11:34;;;;;;;;;;;;;;;;;;2123543;28;19966;-45
2021/10/07 00:12:35;;;;;;;;;;;;;;;;;;2123297;28;20288;-45
2021/10/07 00:13:35;;;;;;;;;;;;;;;;;;2123536;28;19923;-45
2021/10/07 00:14:36;;;;;;;;;;;;;;;;;;2123225;27;19924;-44
2021/10/07 00:15:37;;;;;;;;;;;;;;;;;;2123525;28;19924;-45
2021/10/07 00:16:38;;;;;;;;;;;;;;;;;;2123303;28;19968;-45
2021/10/07 00:17:39;;;;;;;;;;;;;;;;;;2123647;28;20257;-45
2021/10/07 00:18:41;;;;;;;;;;;;;;;;;;2123199;28;20350;-45
2021/10/07 00:19:42;;;;;;;;;;;;;;;;;;2123297;28;20356;-45
2021/10/07 00:20:42;;;;;;;;;;;;;;;;;;2123325;28;19923;-45
2021/10/07 00:21:43;;;;;;;;;;;;;;;;;;2123419;28;19923;-45
2021/10/07 00:22:45;;;;;;;;;;;;;;;;;;2123268;28;19928;-45
2021/10/07 00:23:57;;;;;;;;;;;;;;;;;;2123255;28;19924;-45
2021/10/07 00:24:58;;;;;;;;;;;;;;;;;;2123347;27;20381;-45
2021/10/07 00:25:59;;;;;;;;;;;;;;;;;;2123093;28;19923;-46
2021/10/07 00:27:00;;;;;;;;;;;;;;;;;;2123289;28;20225;-45
2021/10/07 00:28:07;;;;;;;;;;;;;;;;;;2123356;28;19927;-45
2021/10/07 00:30:27;;;;;;;;;;;;;;;;;;2109248;28;20284;-45
2021/10/07 00:31:32;;;;;;;;;;;;;;;;;;2123356;28;19924;-45
2021/10/07 00:32:37;;;;;;;;;;;;;;;;;;2123052;27;20006;-45
2021/10/07 00:33:45;;;;;;;;;;;;;;;;;;2123246;28;20002;-45
2021/10/07 00:34:57;;;;;;;;;;;;;;;;;;2123179;28;20228;-45
2021/10/07 00:36:09;;;;;;;;;;;;;;;;;;2123226;27;20021;-45
2021/10/07 00:37:21;;;;;;;;;;;;;;;;;;2123375;28;19931;-45
2021/10/07 00:39:41;;;;;;;;;;;;;;;;;;2123188;28;20081;-45
2021/10/07 00:40:42;;;;;;;;;;;;;;;;;;2123116;28;19991;-45
2021/10/07 00:41:42;;;;;;;;;;;;;;;;;;2123244;28;20068;-44
2021/10/07 00:42:43;;;;;;;;;;;;;;;;;;2123135;28;19955;-45
2021/10/07 00:43:46;;;;;;;;;;;;;;;;;;2123368;27;19958;-45
2021/10/07 00:44:47;;;;;;;;;;;;;;;;;;2123234;28;19923;-45
2021/10/07 00:45:48;;;;;;;;;;;;;;;;;;2123050;28;19934;-45
2021/10/07 00:46:49;;;;;;;;;;;;;;;;;;2123086;28;19923;-45
2021/10/07 00:47:50;;;;;;;;;;;;;;;;;;2123387;27;20014;-45
2021/10/07 00:48:50;;;;;;;;;;;;;;;;;;2123132;28;20276;-44
2021/10/07 00:49:51;;;;;;;;;;;;;;;;;;2123267;28;20341;-43
2021/10/07 00:50:52;;;;;;;;;;;;;;;;;;2122937;28;19923;-43
2021/10/07 00:51:53;;;;;;;;;;;;;;;;;;2123146;28;19923;-44
2021/10/07 00:52:53;;;;;;;;;;;;;;;;;;2123144;28;19973;-45
2021/10/07 00:53:54;;;;;;;;;;;;;;;;;;2123253;28;20414;-45
2021/10/07 00:54:55;;;;;;;;;;;;;;;;;;2123025;28;19931;-43
2021/10/07 00:55:58;;;;;;;;;;;;;;;;;;2123173;28;19924;-45
2021/10/07 00:56:58;;;;;;;;;;;;;;;;;;2123058;27;20450;-45
2021/10/07 00:57:59;;;;;;;;;;;;;;;;;;2123105;28;19924;-44
2021/10/07 00:59:01;;;;;;;;;;;;;;;;;;2123061;28;20400;-44
2021/10/07 01:00:02;;;;;;;;;;;;;;;;;;2123191;28;20370;-45
2021/10/07 01:01:03;;;;;;;;;;;;;;;;;;2123105;28;19924;-45
2021/10/07 01:02:04;;;;;;;;;;;;;;;;;;2123145;28;20307;-45
2021/10/07 01:03:05;;;;;;;;;;;;;;;;;;2122969;28;20398;-45
2021/10/07 01:04:06;;;;;;;;;;;;;;;;;;2123205;28;19923;-45
2021/10/07 01:05:06;;;;;;;;;;;;;;;;;;2123054;28;20235;-42
2021/10/07 01:06:07;;;;;;;;;;;;;;;;;;2122957;28;19946;-45
2021/10/07 01:07:08;;;;;;;;;;;;;;;;;;2123121;28;19931;-45
2021/10/07 01:08:09;;;;;;;;;;;;;;;;;;2123156;28;19931;-45
2021/10/07 01:09:10;;;;;;;;;;;;;;;;;;2122891;28;19928;-45
2021/10/07 01:10:11;;;;;;;;;;;;;;;;;;2123130;28;19924;-45
2021/10/07 01:11:12;;;;;;;;;;;;;;;;;;2123047;28;19923;-56
2021/10/07 01:12:12;;;;;;;;;;;;;;;;;;2123123;28;19974;-56
2021/10/07 01:13:13;;;;;;;;;;;;;;;;;;2123147;28;19924;-55
2021/10/07 01:14:17;;;;;;;;;;;;;;;;;;2123071;28;19934;-56
2021/10/07 01:15:18;;;;;;;;;;;;;;;;;;2122926;27;19944;-56
2021/10/07 01:16:19;;;;;;;;;;;;;;;;;;2123080;28;20018;-57
2021/10/07 01:17:20;;;;;;;;;;;;;;;;;;2123188;28;19972;-56
2021/10/07 01:18:21;;;;;;;;;;;;;;;;;;2123100;28;20014;-57
2021/10/07 01:19:21;;;;;;;;;;;;;;;;;;2123108;28;19924;-56
2021/10/07 01:20:22;;;;;;;;;;;;;;;;;;2122837;28;20269;-54
2021/10/07 01:21:25;;;;;;;;;;;;;;;;;;2123063;28;19976;-56
2021/10/07 01:22:25;;;;;;;;;;;;;;;;;;2122908;28;20013;-56
2021/10/07 01:23:26;;;;;;;;;;;;;;;;;;2122969;28;20002;-56
2021/10/07 01:24:27;;;;;;;;;;;;;;;;;;2122827;28;19972;-56
2021/10/07 01:25:28;;;;;;;;;;;;;;;;;;2122831;28;19930;-56
2021/10/07 01:26:29;;;;;;;;;;;;;;;;;;2122779;28;19984;-56
2021/10/07 01:27:29;;;;;;;;;;;;;;;;;;2123078;28;19968;-56
2021/10/07 01:28:30;;;;;;;;;;;;;;;;;;2122886;28;20299;-55
2021/10/07 01:29:31;;;;;;;;;;;;;;;;;;2122818;28;19923;-56
2021/10/07 01:30:32;;;;;;;;;;;;;;;;;;2122979;28;19923;-55
2021/10/07 01:31:33;;;;;;;;;;;;;;;;;;2122917;28;19923;-57
2021/10/07 01:32:33;;;;;;;;;;;;;;;;;;2122899;28;19927;-55
2021/10/07 01:33:34;;;;;;;;;;;;;;;;;;2122980;27;19953;-55
2021/10/07 01:34:35;;;;;;;;;;;;;;;;;;2122840;28;20269;-56
2021/10/07 01:35:36;;;;;;;;;;;;;;;;;;2123147;28;19930;-56
2021/10/07 01:36:37;;;;;;;;;;;;;;;;;;2122745;28;19961;-56
2021/10/07 01:37:38;;;;;;;;;;;;;;;;;;2123089;27;19923;-56
2021/10/07 01:38:38;;;;;;;;;;;;;;;;;;2122824;27;19923;-56
2021/10/07 01:39:39;;;;;;;;;;;;;;;;;;2123045;28;19923;-56
2021/10/07 01:40:40;;;;;;;;;;;;;;;;;;2122589;28;20432;-54
2021/10/07 01:41:41;;;;;;;;;;;;;;;;;;2123046;27;19924;-54
2021/10/07 01:42:42;;;;;;;;;;;;;;;;;;2122655;28;20107;-56
2021/10/07 01:43:43;;;;;;;;;;;;;;;;;;2122223;27;20392;-56
2021/10/07 01:44:43;;;;;;;;;;;;;;;;;;2122694;28;19924;-56
2021/10/07 01:45:44;;;;;;;;;;;;;;;;;;2122802;28;19951;-56
2021/10/07 01:46:45;;;;;;;;;;;;;;;;;;2122704;28;19927;-56
2021/10/07 01:47:46;;;;;;;;;;;;;;;;;;2122905;28;19923;-56
2021/10/07 01:48:46;;;;;;;;;;;;;;;;;;2122708;28;20448;-56
2021/10/07 01:49:49;;;;;;;;;;;;;;;;;;2122749;28;19934;-56
2021/10/07 01:50:50;;;;;;;;;;;;;;;;;;2122713;28;19930;-55
2021/10/07 01:51:51;;;;;;;;;;;;;;;;;;2122754;28;19924;-56
2021/10/07 01:52:52;;;;;;;;;;;;;;;;;;2122600;28;19924;-56
2021/10/07 01:53:53;;;;;;;;;;;;;;;;;;2122870;27;19930;-56
2021/10/07 01:54:53;;;;;;;;;;;;;;;;;;2122662;28;19923;-55
2021/10/07 01:55:54;;;;;;;;;;;;;;;;;;2122807;28;19968;-56
2021/10/07 01:56:55;;;;;;;;;;;;;;;;;;2122702;28;19928;-56
2021/10/07 01:57:56;;;;;;;;;;;;;;;;;;2122851;27;20323;-56
2021/10/07 01:58:57;;;;;;;;;;;;;;;;;;2122729;28;20010;-56
2021/10/07 01:59:57;;;;;;;;;;;;;;;;;;2122779;28;20273;-55
2021/10/07 02:00:58;;;;;;;;;;;;;;;;;;2122565;28;19923;-55
2021/10/07 02:01:59;;;;;;;;;;;;;;;;;;2122783;28;19924;-55
2021/10/07 02:03:00;;;;;;;;;;;;;;;;;;2122844;27;19972;-55
2021/10/07 02:04:01;;;;;;;;;;;;;;;;;;2122725;28;20322;-55
2021/10/07 02:05:02;;;;;;;;;;;;;;;;;;2122685;28;19930;-55
2021/10/07 02:06:03;;;;;;;;;;;;;;;;;;2122594;27;19923;-55
2021/10/07 02:07:03;;;;;;;;;;;;;;;;;;2122506;28;19927;-56
2021/10/07 02:08:04;;;;;;;;;;;;;;;;;;2122814;28;20157;-56
2021/10/07 02:09:05;;;;;;;;;;;;;;;;;;2122589;28;19987;-56
2021/10/07 02:10:08;;;;;;;;;;;;;;;;;;2122578;28;20389;-56
2021/10/07 02:11:09;;;;;;;;;;;;;;;;;;2122563;28;20014;-56
2021/10/07 02:12:10;;;;;;;;;;;;;;;;;;2122866;28;19974;-56
2021/10/07 02:13:11;;;;;;;;;;;;;;;;;;2122699;28;19924;-56
2021/10/07 02:14:12;;;;;;;;;;;;;;;;;;2122644;28;19923;-55
2021/10/07 02:15:13;;;;;;;;;;;;;;;;;;2122523;28;19930;-56
2021/10/07 02:16:13;;;;;;;;;;;;;;;;;;2122549;28;19924;-56
2021/10/07 02:17:14;;;;;;;;;;;;;;;;;;2122570;28;19934;-56
2021/10/07 02:18:15;;;;;;;;;;;;;;;;;;2122636;28;19935;-56
2021/10/07 02:19:16;;;;;;;;;;;;;;;;;;2122611;28;20112;-56
2021/10/07 02:20:17;;;;;;;;;;;;;;;;;;2122915;28;20265;-56
2021/10/07 02:21:18;;;;;;;;;;;;;;;;;;2122355;28;19963;-56
2021/10/07 02:22:18;;;;;;;;;;;;;;;;;;2122643;28;20371;-56
2021/10/07 02:23:19;;;;;;;;;;;;;;;;;;2122493;28;19923;-56
2021/10/07 02:24:20;;;;;;;;;;;;;;;;;;2122734;28;20326;-56
2021/10/07 02:25:21;;;;;;;;;;;;;;;;;;2122363;28;20359;-56
2021/10/07 02:26:21;;;;;;;;;;;;;;;;;;2122574;28;19924;-56
2021/10/07 02:27:22;;;;;;;;;;;;;;;;;;2122554;27;19930;-56
2021/10/07 02:28:23;;;;;;;;;;;;;;;;;;2122772;28;20281;-56
2021/10/07 02:29:24;;;;;;;;;;;;;;;;;;2122491;28;20288;-56
2021/10/07 02:30:25;;;;;;;;;;;;;;;;;;2122582;28;19927;-55
2021/10/07 02:31:26;;;;;;;;;;;;;;;;;;2122362;28;19923;-57
2021/10/07 02:32:26;;;;;;;;;;;;;;;;;;2122698;28;19930;-56
2021/10/07 02:33:27;;;;;;;;;;;;;;;;;;2122440;28;19930;-56
2021/10/07 02:34:28;;;;;;;;;;;;;;;;;;2122540;28;19951;-57
2021/10/07 02:35:29;;;;;;;;;;;;;;;;;;2122464;28;19924;-55
2021/10/07 02:36:29;;;;;;;;;;;;;;;;;;2122669;28;20034;-55
2021/10/07 02:37:30;;;;;;;;;;;;;;;;;;2122533;27;19924;-56
2021/10/07 02:38:31;;;;;;;;;;;;;;;;;;2122468;28;19924;-56
2021/10/07 02:39:32;;;;;;;;;;;;;;;;;;2122550;28;19934;-55
2021/10/07 02:40:33;;;;;;;;;;;;;;;;;;2122471;28;19968;-55
2021/10/07 02:41:34;;;;;;;;;;;;;;;;;;2122584;28;19924;-55
2021/10/07 02:42:34;;;;;;;;;;;;;;;;;;2122768;28;20404;-55
2021/10/07 02:43:35;;;;;;;;;;;;;;;;;;2122342;28;19927;-55
2021/10/07 02:44:36;;;;;;;;;;;;;;;;;;2122612;28;19927;-56
2021/10/07 02:45:37;;;;;;;;;;;;;;;;;;2122314;28;19988;-55
2021/10/07 02:46:38;;;;;;;;;;;;;;;;;;2122702;28;19923;-56
2021/10/07 02:47:39;;;;;;;;;;;;;;;;;;2122568;28;20285;-55
2021/10/07 02:48:41;;;;;;;;;;;;;;;;;;2122535;28;19969;-55
2021/10/07 02:49:42;;;;;;;;;;;;;;;;;;2122506;27;20035;-56
2021/10/07 02:50:43;;;;;;;;;;;;;;;;;;2122586;28;20294;-55
2021/10/07 02:51:44;;;;;;;;;;;;;;;;;;2122564;28;20056;-56
2021/10/07 02:52:45;;;;;;;;;;;;;;;;;;2122376;28;20444;-55
2021/10/07 02:53:45;;;;;;;;;;;;;;;;;;2122485;28;19934;-55
2021/10/07 02:54:46;;;;;;;;;;;;;;;;;;2122446;27;19930;-56
2021/10/07 02:55:50;;;;;;;;;;;;;;;;;;2122618;28;19955;-55
2021/10/07 02:56:51;;;;;;;;;;;;;;;;;;2123985;28;19930;-55
2021/10/07 02:57:52;;;;;;;;;;;;;;;;;;2123975;28;19955;-55
2021/10/07 02:58:53;;;;;;;;;;;;;;;;;;2123978;27;19923;-55
2021/10/07 02:59:54;;;;;;;;;;;;;;;;;;2123869;28;19923;-55
2021/10/07 03:00:54;;;;;;;;;;;;;;;;;;2123887;28;20156;-54
2021/10/07 03:01:56;;;;;;;;;;;;;;;;;;2124196;27;19927;-55
2021/10/07 03:02:56;;;;;;;;;;;;;;;;;;2124083;28;20042;-55
2021/10/07 03:03:57;;;;;;;;;;;;;;;;;;2123956;28;19927;-55
2021/10/07 03:04:58;;;;;;;;;;;;;;;;;;2123954;28;19923;-56
2021/10/07 03:05:59;;;;;;;;;;;;;;;;;;2123525;28;20318;-55
2021/10/07 03:07:00;;;;;;;;;;;;;;;;;;2124014;28;19923;-55
2021/10/07 03:08:01;;;;;;;;;;;;;;;;;;2123670;28;20074;-55
2021/10/07 03:09:02;;;;;;;;;;;;;;;;;;2123892;28;19923;-56
2021/10/07 03:10:03;;;;;;;;;;;;;;;;;;2123911;28;20017;-55
2021/10/07 03:11:04;;;;;;;;;;;;;;;;;;2123951;28;19950;-54
2021/10/07 03:12:05;;;;;;;;;;;;;;;;;;2123673;28;19972;-55
2021/10/07 03:13:05;;;;;;;;;;;;;;;;;;2123851;28;19934;-55
2021/10/07 03:14:06;;;;;;;;;;;;;;;;;;2123769;28;19967;-55
2021/10/07 03:15:07;;;;;;;;;;;;;;;;;;2123800;28;19972;-55
2021/10/07 03:16:08;;;;;;;;;;;;;;;;;;2123865;28;19931;-55
2021/10/07 03:17:09;;;;;;;;;;;;;;;;;;2123958;28;19924;-55
2021/10/07 03:18:10;;;;;;;;;;;;;;;;;;2123865;27;19948;-55
2021/10/07 03:19:12;;;;;;;;;;;;;;;;;;2123792;28;20273;-53
2021/10/07 03:20:13;;;;;;;;;;;;;;;;;;2123772;28;20076;-55
2021/10/07 03:21:14;;;;;;;;;;;;;;;;;;2123680;28;20429;-55
2021/10/07 03:22:15;;;;;;;;;;;;;;;;;;2123739;28;20372;-55
2021/10/07 03:23:16;;;;;;;;;;;;;;;;;;2123849;27;20056;-55
2021/10/07 03:24:17;;;;;;;;;;;;;;;;;;2123710;28;20554;-55
2021/10/07 03:25:18;;;;;;;;;;;;;;;;;;2123774;28;19953;-55
2021/10/07 03:26:19;;;;;;;;;;;;;;;;;;2123633;28;20312;-56
2021/10/07 03:27:19;;;;;;;;;;;;;;;;;;2123831;27;19969;-55
2021/10/07 03:28:20;;;;;;;;;;;;;;;;;;2123575;28;19923;-55
2021/10/07 03:29:21;;;;;;;;;;;;;;;;;;2123865;28;19924;-55
2021/10/07 03:30:22;;;;;;;;;;;;;;;;;;2123612;28;20296;-55
2021/10/07 03:31:23;;;;;;;;;;;;;;;;;;2123799;28;19924;-56
2021/10/07 03:32:23;;;;;;;;;;;;;;;;;;2123777;28;19923;-56
2021/10/07 03:33:24;;;;;;;;;;;;;;;;;;2123839;28;20413;-55
2021/10/07 03:34:25;;;;;;;;;;;;;;;;;;2123762;28;19927;-55
2021/10/07 03:35:26;;;;;;;;;;;;;;;;;;2123891;28;20265;-56
2021/10/07 03:36:27;;;;;;;;;;;;;;;;;;2123683;28;19923;-55
2021/10/07 03:37:28;;;;;;;;;;;;;;;;;;2123734;28;19924;-55
2021/10/07 03:38:29;;;;;;;;;;;;;;;;;;2123616;28;19938;-55
2021/10/07 03:39:30;;;;;;;;;;;;;;;;;;2123607;28;20006;-56
2021/10/07 03:40:31;;;;;;;;;;;;;;;;;;2123637;28;20300;-55
2021/10/07 03:41:32;;;;;;;;;;;;;;;;;;2123677;28;20331;-55
2021/10/07 03:42:33;;;;;;;;;;;;;;;;;;2123568;28;20452;-54
2021/10/07 03:43:33;;;;;;;;;;;;;;;;;;2123777;27;19924;-56
2021/10/07 03:44:35;;;;;;;;;;;;;;;;;;2123542;28;20273;-55
2021/10/07 03:45:36;;;;;;;;;;;;;;;;;;2123650;27;20029;-55
2021/10/07 03:46:37;;;;;;;;;;;;;;;;;;2123473;28;20232;-54
2021/10/07 03:47:38;;;;;;;;;;;;;;;;;;2123684;28;19969;-54
2021/10/07 03:48:38;;;;;;;;;;;;;;;;;;2123555;28;19923;-55
2021/10/07 03:49:39;;;;;;;;;;;;;;;;;;2123520;28;19930;-55
2021/10/07 03:50:40;;;;;;;;;;;;;;;;;;2123398;28;19952;-56
2021/10/07 03:51:41;;;;;;;;;;;;;;;;;;2123608;28;19937;-55
2021/10/07 03:52:42;;;;;;;;;;;;;;;;;;2123627;28;19924;-55
2021/10/07 03:53:42;;;;;;;;;;;;;;;;;;2123652;27;20265;-55
2021/10/07 03:54:43;;;;;;;;;;;;;;;;;;2123588;28;19930;-55
2021/10/07 03:55:44;;;;;;;;;;;;;;;;;;2123340;28;19923;-54
2021/10/07 03:56:45;;;;;;;;;;;;;;;;;;2123578;28;19972;-55
2021/10/07 03:57:46;;;;;;;;;;;;;;;;;;2123466;27;19928;-54
2021/10/07 03:58:46;;;;;;;;;;;;;;;;;;2123486;28;19931;-54
2021/10/07 03:59:47;;;;;;;;;;;;;;;;;;2123438;28;19923;-54
2021/10/07 04:00:48;;;;;;;;;;;;;;;;;;2123523;28;19923;-55
2021/10/07 04:01:51;;;;;;;;;;;;;;;;;;2123480;27;19923;-54
2021/10/07 04:02:52;;;;;;;;;;;;;;;;;;2123730;28;19924;-55
2021/10/07 04:03:53;;;;;;;;;;;;;;;;;;2123314;28;19923;-54
2021/10/07 04:04:54;;;;;;;;;;;;;;;;;;2123432;28;19923;-54
2021/10/07 04:05:55;;;;;;;;;;;;;;;;;;2123299;28;19927;-54
2021/10/07 04:06:56;;;;;;;;;;;;;;;;;;2122967;27;19974;-54
2021/10/07 04:07:57;;;;;;;;;;;;;;;;;;2123455;28;19923;-55
2021/10/07 04:08:58;;;;;;;;;;;;;;;;;;2123459;27;19924;-54
2021/10/07 04:09:59;;;;;;;;;;;;;;;;;;2123447;28;19933;-53
2021/10/07 04:11:00;;;;;;;;;;;;;;;;;;2123357;28;19950;-54
2021/10/07 04:12:00;;;;;;;;;;;;;;;;;;2123468;28;19927;-55
2021/10/07 04:13:01;;;;;;;;;;;;;;;;;;2123381;28;19924;-54
2021/10/07 04:14:02;;;;;;;;;;;;;;;;;;2123267;28;19924;-54
2021/10/07 04:15:03;;;;;;;;;;;;;;;;;;2123657;28;19931;-54
2021/10/07 04:16:03;;;;;;;;;;;;;;;;;;2123088;28;20315;-55
2021/10/07 04:17:04;;;;;;;;;;;;;;;;;;2123458;27;20410;-54
2021/10/07 04:18:05;;;;;;;;;;;;;;;;;;2123179;28;19927;-54
2021/10/07 04:19:06;;;;;;;;;;;;;;;;;;2123505;28;20014;-54
2021/10/07 04:20:07;;;;;;;;;;;;;;;;;;2123344;28;19923;-55
2021/10/07 04:21:08;;;;;;;;;;;;;;;;;;2123374;28;19966;-54
2021/10/07 04:22:08;;;;;;;;;;;;;;;;;;2123233;28;19958;-54
2021/10/07 04:23:09;;;;;;;;;;;;;;;;;;2123281;28;20310;-54
2021/10/07 04:24:10;;;;;;;;;;;;;;;;;;2123293;28;19923;-54
2021/10/07 04:25:11;;;;;;;;;;;;;;;;;;2123344;28;19924;-55
2021/10/07 04:26:12;;;;;;;;;;;;;;;;;;2123156;28;19924;-55
2021/10/07 04:27:14;;;;;;;;;;;;;;;;;;2123214;28;19970;-55
2021/10/07 04:28:15;;;;;;;;;;;;;;;;;;2123301;27;19955;-55
2021/10/07 04:29:16;;;;;;;;;;;;;;;;;;2123308;28;20447;-54
2021/10/07 04:30:16;;;;;;;;;;;;;;;;;;2123294;28;19929;-54
2021/10/07 04:31:18;;;;;;;;;;;;;;;;;;2123227;28;19924;-55
2021/10/07 04:32:19;;;;;;;;;;;;;;;;;;2123312;28;19923;-54
2021/10/07 04:33:20;;;;;;;;;;;;;;;;;;2123359;28;19923;-55
2021/10/07 04:34:20;;;;;;;;;;;;;;;;;;2123368;28;19979;-54
2021/10/07 04:35:21;;;;;;;;;;;;;;;;;;2123329;27;19976;-54
2021/10/07 04:36:22;;;;;;;;;;;;;;;;;;2123179;28;19923;-53
2021/10/07 04:37:23;;;;;;;;;;;;;;;;;;2123283;28;19931;-54
2021/10/07 04:38:24;;;;;;;;;;;;;;;;;;2123119;28;19980;-54
2021/10/07 04:39:25;;;;;;;;;;;;;;;;;;2123271;28;19930;-55
2021/10/07 04:40:26;;;;;;;;;;;;;;;;;;2123100;28;19954;-54
2021/10/07 04:41:27;;;;;;;;;;;;;;;;;;2123374;28;19924;-54
2021/10/07 04:42:28;;;;;;;;;;;;;;;;;;2123094;28;20391;-54
2021/10/07 04:43:29;;;;;;;;;;;;;;;;;;2123206;28;20493;-55
2021/10/07 04:44:29;;;;;;;;;;;;;;;;;;2123045;28;19924;-54
2021/10/07 04:45:30;;;;;;;;;;;;;;;;;;2123206;27;19923;-54
2021/10/07 04:46:31;;;;;;;;;;;;;;;;;;2123172;28;19976;-54
2021/10/07 04:47:32;;;;;;;;;;;;;;;;;;2123126;28;19924;-54
2021/10/07 04:48:33;;;;;;;;;;;;;;;;;;2123123;28;19976;-54
2021/10/07 04:49:34;;;;;;;;;;;;;;;;;;2123289;28;19924;-54
2021/10/07 04:50:34;;;;;;;;;;;;;;;;;;2123046;28;19930;-54
2021/10/07 04:51:35;;;;;;;;;;;;;;;;;;2123234;27;19976;-54
2021/10/07 04:52:36;;;;;;;;;;;;;;;;;;2123190;28;20423;-52
2021/10/07 04:53:37;;;;;;;;;;;;;;;;;;2123508;28;19988;-54
2021/10/07 04:54:37;;;;;;;;;;;;;;;;;;2123130;28;19923;-54
2021/10/07 04:55:38;;;;;;;;;;;;;;;;;;2123237;27;20261;-54
2021/10/07 04:56:39;;;;;;;;;;;;;;;;;;2123094;28;19924;-54
2021/10/07 04:57:40;;;;;;;;;;;;;;;;;;2123324;28;19923;-54
2021/10/07 04:58:41;;;;;;;;;;;;;;;;;;2122963;28;20388;-54
2021/10/07 04:59:42;;;;;;;;;;;;;;;;;;2123112;28;19923;-55
2021/10/07 05:00:42;;;;;;;;;;;;;;;;;;2122818;28;19927;-54
2021/10/07 05:01:43;;;;;;;;;;;;;;;;;;2123126;28;19930;-54
2021/10/07 05:02:44;;;;;;;;;;;;;;;;;;2123150;28;19932;-54
2021/10/07 05:03:45;;;;;;;;;;;;;;;;;;2123083;28;20384;-55
2021/10/07 05:04:46;;;;;;;;;;;;;;;;;;2123056;28;19924;-54
2021/10/07 05:05:49;;;;;;;;;;;;;;;;;;2123064;28;19923;-54
2021/10/07 05:06:50;;;;;;;;;;;;;;;;;;2122964;28;20265;-52
2021/10/07 05:07:51;;;;;;;;;;;;;;;;;;2122996;28;19924;-54
2021/10/07 05:08:52;;;;;;;;;;;;;;;;;;2123217;28;19924;-54
2021/10/07 05:09:53;;;;;;;;;;;;;;;;;;2123020;28;20394;-54
2021/10/07 05:10:54;;;;;;;;;;;;;;;;;;2122919;28;19924;-54
2021/10/07 05:11:54;;;;;;;;;;;;;;;;;;2123176;27;20006;-52
2021/10/07 05:12:55;;;;;;;;;;;;;;;;;;2122864;28;19927;-54
2021/10/07 05:13:56;;;;;;;;;;;;;;;;;;2122983;28;19923;-54
2021/10/07 05:14:57;;;;;;;;;;;;;;;;;;2122848;28;19927;-54
2021/10/07 05:15:58;;;;;;;;;;;;;;;;;;2122919;28;20131;-54
2021/10/07 05:16:59;;;;;;;;;;;;;;;;;;2123040;28;19930;-55
2021/10/07 05:18:00;;;;;;;;;;;;;;;;;;2123085;27;19930;-54
2021/10/07 05:19:01;;;;;;;;;;;;;;;;;;2122009;27;19923;-53
2021/10/07 05:20:02;;;;;;;;;;;;;;;;;;2123146;28;20501;-54
2021/10/07 05:21:02;;;;;;;;;;;;;;;;;;2122857;28;20337;-55
2021/10/07 05:22:03;;;;;;;;;;;;;;;;;;2123064;28;19924;-54
2021/10/07 05:23:05;;;;;;;;;;;;;;;;;;2122909;28;19931;-54
2021/10/07 05:24:05;;;;;;;;;;;;;;;;;;2122888;28;20477;-53
2021/10/07 05:25:06;;;;;;;;;;;;;;;;;;2122956;28;19923;-54
2021/10/07 05:26:07;;;;;;;;;;;;;;;;;;2122958;28;20323;-55
2021/10/07 05:27:08;;;;;;;;;;;;;;;;;;2122993;28;20303;-55
2021/10/07 05:28:08;;;;;;;;;;;;;;;;;;2122863;28;19973;-54
2021/10/07 05:29:09;;;;;;;;;;;;;;;;;;2122837;28;19928;-54
2021/10/07 05:30:10;;;;;;;;;;;;;;;;;;2122881;28;19930;-54
2021/10/07 05:31:11;;;;;;;;;;;;;;;;;;2122663;28;19977;-54
2021/10/07 05:32:12;;;;;;;;;;;;;;;;;;2122989;28;19923;-55
2021/10/07 05:33:13;;;;;;;;;;;;;;;;;;2122899;28;19923;-54
2021/10/07 05:34:13;;;;;;;;;;;;;;;;;;2122807;28;20326;-55
2021/10/07 05:35:14;;;;;;;;;;;;;;;;;;2122939;28;20412;-55
2021/10/07 05:36:15;;;;;;;;;;;;;;;;;;2122932;28;19928;-54
2021/10/07 05:37:16;;;;;;;;;;;;;;;;;;2122728;27;19931;-54
2021/10/07 05:38:17;;;;;;;;;;;;;;;;;;2122796;28;19924;-54
2021/10/07 05:39:17;;;;;;;;;;;;;;;;;;2122799;28;19972;-55
2021/10/07 05:40:18;;;;;;;;;;;;;;;;;;2122991;28;19923;-55
2021/10/07 05:41:19;;;;;;;;;;;;;;;;;;2122731;27;20376;-53
2021/10/07 05:42:20;;;;;;;;;;;;;;;;;;2122928;28;19958;-55
2021/10/07 05:43:21;;;;;;;;;;;;;;;;;;2122713;28;19924;-55
2021/10/07 05:44:22;;;;;;;;;;;;;;;;;;2122955;28;19976;-55
2021/10/07 05:45:23;;;;;;;;;;;;;;;;;;2122635;28;19923;-54
2021/10/07 05:46:23;;;;;;;;;;;;;;;;;;2122626;28;19924;-54
2021/10/07 05:47:24;;;;;;;;;;;;;;;;;;2122824;27;19924;-55
2021/10/07 05:48:25;;;;;;;;;;;;;;;;;;2122917;28;20400;-55
2021/10/07 05:49:27;;;;;;;;;;;;;;;;;;2122787;28;20400;-55
2021/10/07 05:50:28;;;;;;;;;;;;;;;;;;2122784;27;19923;-54
2021/10/07 05:51:29;;;;;;;;;;;;;;;;;;2122741;28;19923;-55
2021/10/07 05:52:30;;;;;;;;;;;;;;;;;;2122755;28;20269;-55
2021/10/07 05:53:30;;;;;;;;;;;;;;;;;;2122673;28;19923;-55
2021/10/07 05:54:31;;;;;;;;;;;;;;;;;;2122653;28;19923;-55
2021/10/07 05:55:32;;;;;;;;;;;;;;;;;;2122529;28;20368;-55
2021/10/07 05:56:33;;;;;;;;;;;;;;;;;;2122754;28;19923;-55
2021/10/07 05:57:34;;;;;;;;;;;;;;;;;;2122877;28;19931;-55
2021/10/07 05:58:35;;;;;;;;;;;;;;;;;;2122614;28;20326;-55
2021/10/07 05:59:35;;;;;;;;;;;;;;;;;;2122845;27;19928;-55
2021/10/07 06:00:36;;;;;;;;;;;;;;;;;;2122635;27;19923;-55
2021/10/07 06:01:37;;;;;;;;;;;;;;;;;;2122639;28;19924;-55
2021/10/07 06:02:38;;;;;;;;;;;;;;;;;;2122783;28;19990;-55
2021/10/07 06:03:39;;;;;;;;;;;;;;;;;;2122767;27;19931;-55
2021/10/07 06:04:40;;;;;;;;;;;;;;;;;;2122904;28;19923;-55
2021/10/07 06:05:44;;;;;;;;;;;;;;;;;;2122662;28;19924;-55
2021/10/07 06:06:45;;;;;;;;;;;;;;;;;;2122713;28;20030;-55
2021/10/07 06:07:46;;;;;;;;;;;;;;;;;;2122654;28;19923;-55
2021/10/07 06:08:47;;;;;;;;;;;;;;;;;;2122685;28;19976;-55
2021/10/07 06:09:48;;;;;;;;;;;;;;;;;;2122633;28;19923;-55
2021/10/07 06:10:49;;;;;;;;;;;;;;;;;;2122819;28;19924;-55
2021/10/07 06:11:53;;;;;;;;;;;;;;;;;;2122736;28;19930;-56
2021/10/07 06:12:53;;;;;;;;;;;;;;;;;;2122554;28;19924;-56
2021/10/07 06:13:54;;;;;;;;;;;;;;;;;;2122769;28;19923;-56
2021/10/07 06:14:55;;;;;;;;;;;;;;;;;;2122637;28;20383;-54
2021/10/07 06:15:56;;;;;;;;;;;;;;;;;;2122580;28;20468;-56
2021/10/07 06:16:57;;;;;;;;;;;;;;;;;;2122567;28;20001;-56
2021/10/07 06:17:58;;;;;;;;;;;;;;;;;;2122670;28;19945;-56
2021/10/07 06:19:02;;;;;;;;;;;;;;;;;;2122673;28;19929;-54
2021/10/07 06:20:06;;;;;;;;;;;;;;;;;;2122759;27;20022;-56
2021/10/07 06:21:06;;;;;;;;;;;;;;;;;;2122630;28;20032;-55
2021/10/07 06:22:18;;;;;;;;;;;;;;;;;;2122743;27;19951;-56
2021/10/07 06:23:18;;;;;;;;;;;;;;;;;;2122648;28;20383;-56
2021/10/07 06:24:19;;;;;;;;;;;;;;;;;;2122649;28;20394;-55
2021/10/07 06:25:20;;;;;;;;;;;;;;;;;;2122639;28;19930;-56
2021/10/07 06:26:22;;;;;;;;;;;;;;;;;;2122665;27;19930;-56
2021/10/07 06:27:23;;;;;;;;;;;;;;;;;;2122649;27;20177;-56
2021/10/07 06:28:24;;;;;;;;;;;;;;;;;;2122591;28;19924;-56
2021/10/07 06:29:25;;;;;;;;;;;;;;;;;;2122482;28;19930;-56
2021/10/07 06:30:26;;;;;;;;;;;;;;;;;;2123611;27;19927;-56
2021/10/07 06:31:26;;;;;;;;;;;;;;;;;;2123887;28;19972;-55
2021/10/07 06:32:27;;;;;;;;;;;;;;;;;;2124168;28;19923;-56
2021/10/07 06:33:28;;;;;;;;;;;;;;;;;;2123965;28;19924;-56
2021/10/07 06:34:29;;;;;;;;;;;;;;;;;;2124121;28;19923;-56
2021/10/07 06:35:30;;;;;;;;;;;;;;;;;;2124001;28;20369;-56
2021/10/07 06:36:31;;;;;;;;;;;;;;;;;;2124200;28;19927;-56
2021/10/07 06:37:32;;;;;;;;;;;;;;;;;;2123983;28;19923;-56
2021/10/07 06:38:32;;;;;;;;;;;;;;;;;;2124219;28;20275;-56
2021/10/07 06:39:33;;;;;;;;;;;;;;;;;;2124000;28;19948;-56
2021/10/07 06:40:34;;;;;;;;;;;;;;;;;;2124290;28;20001;-56
2021/10/07 06:41:35;;;;;;;;;;;;;;;;;;2123952;28;19946;-56
2021/10/07 06:42:36;;;;;;;;;;;;;;;;;;2124198;28;19969;-56
2021/10/07 06:43:37;;;;;;;;;;;;;;;;;;2124008;28;20368;-56
2021/10/07 06:44:38;;;;;;;;;;;;;;;;;;2124090;28;19996;-56
2021/10/07 06:45:39;;;;;;;;;;;;;;;;;;2123883;28;20033;-56
2021/10/07 06:46:40;;;;;;;;;;;;;;;;;;2123905;28;20291;-56
2021/10/07 06:47:40;;;;;;;;;;;;;;;;;;2123991;28;19923;-56
2021/10/07 06:48:41;;;;;;;;;;;;;;;;;;2124209;28;20006;-56
2021/10/07 06:49:43;;;;;;;;;;;;;;;;;;2124017;28;19923;-57
2021/10/07 06:50:43;;;;;;;;;;;;;;;;;;2124027;28;19930;-56
2021/10/07 06:51:44;;;;;;;;;;;;;;;;;;2124030;28;20304;-56
2021/10/07 06:52:45;;;;;;;;;;;;;;;;;;2124160;28;19924;-57
2021/10/07 06:53:49;;;;;;;;;;;;;;;;;;2123986;28;19963;-56
2021/10/07 06:54:50;;;;;;;;;;;;;;;;;;2124114;27;20017;-57
2021/10/07 06:55:51;;;;;;;;;;;;;;;;;;2123888;28;19924;-56
2021/10/07 06:56:52;;;;;;;;;;;;;;;;;;2124116;27;19923;-56
2021/10/07 06:57:53;;;;;;;;;;;;;;;;;;2123823;28;19928;-56
2021/10/07 06:58:53;;;;;;;;;;;;;;;;;;2124080;28;19924;-56
2021/10/07 06:59:54;;;;;;;;;;;;;;;;;;2123822;28;19930;-57